Time;durP1;ratioP1;P1;durP2;ratioP2;P2;SDS_P1;SDS_P2;PMS_P1;PMS_P2;Temp;Humidity;BMP_temperature;BMP_pressure;BME280_temperature;BME280_humidity;BME280_pressure;Samples;Min_cycle;Max_cycle;Signal;HPM_P1;HPM_P2
2023/05/17 00:01:52;;;;;;;;;;;;;;;6.11;92.18;96810.97;4983587;28;19959;-79
2023/05/17 00:04:17;;;;;;;;;;;;;;;6.10;91.82;96809.31;4983770;28;19955;-79
2023/05/17 00:06:43;;;;;;;;;;;;;;;6.07;92.37;96810.50;4983110;28;20246;-80
2023/05/17 00:09:09;;;;;;;;;;;;;;;6.08;92.08;96826.94;4983625;28;20140;-80
2023/05/17 00:11:35;;;;;;;;;;;;;;;6.06;92.33;96821.09;4983506;28;19957;-79
2023/05/17 00:14:01;;;;;;;;;;;;;;;6.03;91.93;96816.25;4983378;28;19946;-80
2023/05/17 00:16:27;;;;;;;;;;;;;;;6.00;92.71;96827.81;4983665;28;20134;-72
2023/05/17 00:18:52;;;;;;;;;;;;;;;5.98;92.53;96823.78;4983714;28;20031;-71
2023/05/17 00:21:18;;;;;;;;;;;;;;;5.95;92.84;96834.56;4983033;28;20011;-72
2023/05/17 00:23:44;;;;;;;;;;;;;;;5.90;92.84;96825.47;4983886;28;20003;-72
2023/05/17 00:26:10;;;;;;;;;;;;;;;5.88;92.96;96829.25;4982919;28;19958;-71
2023/05/17 00:28:36;;;;;;;;;;;;;;;5.85;93.00;96837.38;4983616;28;19962;-72
2023/05/17 00:31:01;;;;;;;;;;;;;;;5.82;93.26;96841.16;4983107;28;19963;-71
2023/05/17 00:33:27;;;;;;;;;;;;;;;5.80;93.07;96837.13;4983226;28;19973;-72
2023/05/17 00:35:53;;;;;;;;;;;;;;;5.77;93.13;96846.06;4982871;28;20025;-73
2023/05/17 00:38:19;;;;;;;;;;;;;;;5.73;93.25;96847.41;4983213;28;19957;-72
2023/05/17 00:40:45;;;;;;;;;;;;;;;5.72;93.27;96852.81;4983036;28;19981;-72
2023/05/17 00:43:11;;;;;;;;;;;;;;;5.70;93.49;96866.78;4983350;28;19954;-72
2023/05/17 00:45:36;;;;;;;;;;;;;;;5.68;93.73;96855.75;4982636;28;19965;-73
2023/05/17 00:48:02;;;;;;;;;;;;;;;5.65;93.97;96861.31;4982677;28;19957;-72
2023/05/17 00:50:28;;;;;;;;;;;;;;;5.64;94.09;96864.91;4982793;28;19964;-72
2023/05/17 00:52:54;;;;;;;;;;;;;;;5.62;94.34;96866.06;4982673;28;19954;-71
2023/05/17 00:55:20;;;;;;;;;;;;;;;5.59;94.58;96872.44;4982737;28;19970;-80
2023/05/17 00:57:47;;;;;;;;;;;;;;;5.56;94.82;96867.56;4982692;28;19956;-79
2023/05/17 01:00:13;;;;;;;;;;;;;;;5.53;95.00;96873.13;4982630;28;20332;-80
2023/05/17 01:02:39;;;;;;;;;;;;;;;5.51;95.05;96874.28;4982790;28;19970;-79
2023/05/17 01:05:05;;;;;;;;;;;;;;;5.50;95.03;96868.25;4982293;28;19982;-79
2023/05/17 01:07:31;;;;;;;;;;;;;;;5.50;94.60;96873.47;4983010;28;19962;-79
2023/05/17 01:09:57;;;;;;;;;;;;;;;5.48;94.75;96870.22;4983675;28;19957;-79
2023/05/17 01:12:35;;;;;;;;;;;;;;;5.47;95.11;96873.81;4982706;28;19966;-72
2023/05/17 01:15:14;;;;;;;;;;;;;;;5.44;95.42;96871.59;4982559;28;19955;-73
2023/05/17 01:17:59;;;;;;;;;;;;;;;5.38;95.78;96880.88;5049356;28;19960;-74
2023/05/17 01:20:36;;;;;;;;;;;;;;;5.38;96.15;96890.50;4982302;28;20145;-73
2023/05/17 01:23:20;;;;;;;;;;;;;;;5.38;95.77;96888.69;4982691;28;19960;-73
2023/05/17 01:25:51;;;;;;;;;;;;;;;5.39;95.99;96879.88;4982555;28;19968;-73
2023/05/17 01:28:17;;;;;;;;;;;;;;;5.41;95.59;96893.53;4982139;28;19946;-74
2023/05/17 01:30:43;;;;;;;;;;;;;;;5.41;95.61;96882.31;4982126;28;19957;-67
2023/05/17 01:33:10;;;;;;;;;;;;;;;5.40;95.54;96889.31;4982711;28;19955;-67
2023/05/17 01:35:35;;;;;;;;;;;;;;;5.42;94.81;96876.16;4982622;28;19962;-69
2023/05/17 01:38:01;;;;;;;;;;;;;;;5.43;95.26;96886.38;4984707;28;19957;-67
2023/05/17 01:40:27;;;;;;;;;;;;;;;5.44;95.11;96885.41;4985932;28;19967;-67
2023/05/17 01:42:56;;;;;;;;;;;;;;;5.45;94.78;96876.59;4985303;28;20010;-68
2023/05/17 01:45:25;;;;;;;;;;;;;;;5.47;95.06;96886.84;4985555;28;19963;-67
2023/05/17 01:48:14;;;;;;;;;;;;;;;5.46;94.57;96878.22;4985627;28;20132;-71
2023/05/17 01:50:40;;;;;;;;;;;;;;;5.47;94.42;96881.63;4990540;28;19967;-74
2023/05/17 01:53:09;;;;;;;;;;;;;;;5.48;95.25;96891.03;4985170;28;19978;-73
2023/05/17 01:55:41;;;;;;;;;;;;;;;5.47;95.25;96894.63;5052436;28;19955;-73
2023/05/17 01:58:08;;;;;;;;;;;;;;;5.49;95.04;96892.66;4985740;28;19953;-74
2023/05/17 02:00:35;;;;;;;;;;;;;;;5.45;94.86;96883.59;4985592;28;19969;-74
2023/05/17 02:03:01;;;;;;;;;;;;;;;5.42;94.12;96884.75;4985222;28;19959;-74
2023/05/17 02:05:27;;;;;;;;;;;;;;;5.38;94.68;96878.28;4985204;28;19957;-73
2023/05/17 02:07:53;;;;;;;;;;;;;;;5.37;95.37;96892.25;4985489;28;19958;-79
2023/05/17 02:10:18;;;;;;;;;;;;;;;5.37;95.70;96899.25;4985515;28;19956;-73
2023/05/17 02:12:44;;;;;;;;;;;;;;;5.37;95.88;96907.06;4984854;28;19957;-74
2023/05/17 02:15:12;;;;;;;;;;;;;;;5.35;95.84;96903.81;4985335;28;20019;-73
2023/05/17 02:17:39;;;;;;;;;;;;;;;5.32;96.11;96905.00;5052376;28;19938;-73
2023/05/17 02:20:06;;;;;;;;;;;;;;;5.31;96.30;96899.94;4985329;28;19958;-73
2023/05/17 02:22:32;;;;;;;;;;;;;;;5.30;96.05;96901.75;4984804;28;19961;-73
2023/05/17 02:24:58;;;;;;;;;;;;;;;5.27;96.14;96897.72;4984796;28;19956;-78
2023/05/17 02:27:23;;;;;;;;;;;;;;;5.25;96.55;96904.06;4984766;28;19968;-74
2023/05/17 02:29:49;;;;;;;;;;;;;;;5.23;96.24;96903.44;4984901;28;19951;-74
2023/05/17 02:32:15;;;;;;;;;;;;;;;5.21;96.61;96908.00;4984774;28;20003;-75
2023/05/17 02:34:41;;;;;;;;;;;;;;;5.17;96.99;96923.13;4984823;28;19964;-74
2023/05/17 02:37:07;;;;;;;;;;;;;;;5.14;97.10;96918.25;4984816;28;20259;-74
2023/05/17 02:39:32;;;;;;;;;;;;;;;5.11;97.57;96920.41;4984946;28;19951;-74
2023/05/17 02:41:58;;;;;;;;;;;;;;;5.07;97.25;96919.94;4984857;28;19954;-73
2023/05/17 02:44:24;;;;;;;;;;;;;;;5.02;97.81;96915.25;4984872;28;19979;-73
2023/05/17 02:46:50;;;;;;;;;;;;;;;4.99;97.43;96907.78;4984790;28;19996;-69
2023/05/17 02:49:16;;;;;;;;;;;;;;;4.97;96.99;96904.53;5050650;28;19955;-70
2023/05/17 02:51:41;;;;;;;;;;;;;;;4.99;98.15;96919.97;4985015;28;20264;-69
2023/05/17 02:54:07;;;;;;;;;;;;;;;5.02;98.68;96923.03;4984727;28;19958;-69
2023/05/17 02:56:33;;;;;;;;;;;;;;;5.05;98.47;96922.69;4984682;28;19959;-69
2023/05/17 02:59:00;;;;;;;;;;;;;;;5.05;98.52;96914.91;5051309;28;19936;-69
2023/05/17 03:01:26;;;;;;;;;;;;;;;5.07;98.64;96918.13;4984477;28;19975;-73
2023/05/17 03:03:52;;;;;;;;;;;;;;;5.09;98.93;96926.56;4984404;28;19957;-72
2023/05/17 03:06:18;;;;;;;;;;;;;;;5.09;97.87;96917.97;4984340;28;19967;-72
2023/05/17 03:08:44;;;;;;;;;;;;;;;5.07;97.92;96922.53;4984406;28;19957;-72
2023/05/17 03:11:09;;;;;;;;;;;;;;;5.07;97.74;96920.72;4984387;28;19956;-72
2023/05/17 03:13:35;;;;;;;;;;;;;;;5.07;97.53;96919.94;4984365;28;20026;-72
2023/05/17 03:16:01;;;;;;;;;;;;;;;5.04;96.92;96910.69;4984498;28;19958;-72
2023/05/17 03:18:27;;;;;;;;;;;;;;;5.02;97.04;96917.03;4984232;28;19963;-72
2023/05/17 03:20:53;;;;;;;;;;;;;;;4.99;97.68;96925.16;4983716;28;19977;-73
2023/05/17 03:23:19;;;;;;;;;;;;;;;4.94;97.73;96933.47;5051319;28;19984;-74
2023/05/17 03:25:45;;;;;;;;;;;;;;;4.91;98.25;96931.22;5050902;28;20153;-74
2023/05/17 03:28:10;;;;;;;;;;;;;;;4.87;98.77;96929.94;4984361;28;19956;-74
2023/05/17 03:30:36;;;;;;;;;;;;;;;4.84;98.68;96930.28;5050973;28;19965;-75
2023/05/17 03:33:02;;;;;;;;;;;;;;;4.81;98.85;96933.22;4983913;28;19964;-74
2023/05/17 03:35:28;;;;;;;;;;;;;;;4.76;98.85;96935.50;4984142;28;20254;-74
2023/05/17 03:37:54;;;;;;;;;;;;;;;4.72;99.78;96936.81;4983938;28;20215;-74
2023/05/17 03:40:20;;;;;;;;;;;;;;;4.67;99.72;96940.72;4983823;28;19967;-69
2023/05/17 03:42:46;;;;;;;;;;;;;;;4.65;99.90;96945.28;4983980;28;20034;-75
2023/05/17 03:45:11;;;;;;;;;;;;;;;4.64;100.00;96948.88;4984012;28;19952;-75
2023/05/17 03:47:37;;;;;;;;;;;;;;;4.63;100.00;96943.84;4983940;28;19960;-75
2023/05/17 03:50:04;;;;;;;;;;;;;;;4.61;99.65;96941.41;4983990;28;20131;-75
2023/05/17 03:52:30;;;;;;;;;;;;;;;4.60;100.00;96947.59;5050797;28;20021;-75
2023/05/17 03:54:56;;;;;;;;;;;;;;;4.59;100.00;96951.16;4983818;28;19958;-75
2023/05/17 03:57:22;;;;;;;;;;;;;;;4.61;100.00;96961.38;4983743;28;20240;-73
2023/05/17 03:59:48;;;;;;;;;;;;;;;4.60;100.00;96954.56;4982883;28;20164;-72
2023/05/17 04:02:14;;;;;;;;;;;;;;;4.58;99.86;96959.13;4983436;28;19993;-72
2023/05/17 04:04:40;;;;;;;;;;;;;;;4.57;100.00;96960.91;4983458;28;19983;-72
2023/05/17 04:07:06;;;;;;;;;;;;;;;4.57;100.00;96967.88;4983660;28;20244;-72
2023/05/17 04:09:33;;;;;;;;;;;;;;;4.57;100.00;96963.50;4983464;28;19979;-72
2023/05/17 04:11:59;;;;;;;;;;;;;;;4.59;99.70;96958.94;4983492;28;19959;-72
2023/05/17 04:14:25;;;;;;;;;;;;;;;4.57;99.61;96966.09;4983484;28;20140;-72
2023/05/17 04:16:51;;;;;;;;;;;;;;;4.55;99.60;96970.66;5049836;28;20149;-73
2023/05/17 04:19:17;;;;;;;;;;;;;;;4.54;100.00;96970.84;4982904;28;19943;-69
2023/05/17 04:21:43;;;;;;;;;;;;;;;4.53;99.86;96979.59;4982921;28;20153;-69
2023/05/17 04:24:09;;;;;;;;;;;;;;;4.51;99.89;96979.75;4983574;28;19958;-69
2023/05/17 04:26:35;;;;;;;;;;;;;;;4.52;100.00;96980.56;4983376;28;19963;-69
2023/05/17 04:29:01;;;;;;;;;;;;;;;4.52;99.85;96981.38;5049878;28;20245;-69
2023/05/17 04:31:26;;;;;;;;;;;;;;;4.55;100.00;96980.22;4982953;28;19965;-69
2023/05/17 04:33:52;;;;;;;;;;;;;;;4.58;100.00;96995.50;5049836;28;20032;-72
2023/05/17 04:36:18;;;;;;;;;;;;;;;4.60;99.99;96998.72;4983047;28;19963;-75
2023/05/17 04:38:45;;;;;;;;;;;;;;;4.63;100.00;96998.41;4983038;28;19965;-75
2023/05/17 04:41:11;;;;;;;;;;;;;;;4.68;100.00;96990.91;4983079;28;19962;-75
2023/05/17 04:43:37;;;;;;;;;;;;;;;4.71;100.00;96997.56;4983056;28;19962;-75
2023/05/17 04:46:04;;;;;;;;;;;;;;;4.74;100.00;96994.63;4983115;28;20143;-74
2023/05/17 04:48:31;;;;;;;;;;;;;;;4.78;100.00;96995.91;4983244;28;20127;-75
2023/05/17 04:50:59;;;;;;;;;;;;;;;4.80;100.00;97002.56;5049516;28;19966;-75
2023/05/17 04:53:25;;;;;;;;;;;;;;;4.88;100.00;97002.53;4982969;28;19967;-72
2023/05/17 04:55:51;;;;;;;;;;;;;;;5.02;99.88;97008.03;4982626;28;19963;-68
2023/05/17 04:58:17;;;;;;;;;;;;;;;5.18;100.00;97007.13;5049479;28;19965;-69
2023/05/17 05:00:43;;;;;;;;;;;;;;;5.31;99.20;97006.56;4982838;28;19992;-69
2023/05/17 05:03:09;;;;;;;;;;;;;;;5.40;98.86;97006.38;4982656;28;20301;-69
2023/05/17 05:05:35;;;;;;;;;;;;;;;5.50;98.81;97006.13;4982649;28;19952;-69
2023/05/17 05:08:01;;;;;;;;;;;;;;;5.63;98.60;97013.41;4982664;28;19986;-69
2023/05/17 05:10:27;;;;;;;;;;;;;;;5.76;97.43;97003.22;4982795;28;20012;-69
2023/05/17 05:12:53;;;;;;;;;;;;;;;5.90;97.30;97010.28;4985299;28;20248;-74
2023/05/17 05:15:19;;;;;;;;;;;;;;;6.10;97.58;97017.63;5053300;28;20037;-75
2023/05/17 05:17:45;;;;;;;;;;;;;;;6.34;96.55;97010.59;4985597;28;20028;-74
2023/05/17 05:20:11;;;;;;;;;;;;;;;6.50;95.15;97000.81;4985600;28;20271;-74
2023/05/17 05:22:37;;;;;;;;;;;;;;;6.62;95.23;97003.00;4986114;28;19958;-75
2023/05/17 05:25:03;;;;;;;;;;;;;;;6.83;94.73;97008.31;5052931;28;19976;-74
2023/05/17 05:27:29;;;;;;;;;;;;;;;7.06;93.63;97000.38;4985463;28;20294;-74
2023/05/17 05:29:55;;;;;;;;;;;;;;;7.39;93.11;96999.97;4985814;28;19959;-74
2023/05/17 05:32:20;;;;;;;;;;;;;;;7.67;91.25;96991.44;4985987;28;19951;-68
2023/05/17 05:34:46;;;;;;;;;;;;;;;8.03;90.80;96987.94;4986240;28;19979;-68
2023/05/17 05:37:12;;;;;;;;;;;;;;;8.39;89.61;96979.97;4985744;28;20005;-68
2023/05/17 05:39:38;;;;;;;;;;;;;;;8.76;89.19;96975.41;4985860;28;20005;-68
2023/05/17 05:42:04;;;;;;;;;;;;;;;9.11;86.16;96959.66;4985749;28;20089;-69
2023/05/17 05:44:30;;;;;;;;;;;;;;;9.35;86.76;96963.59;4985803;28;19968;-68
2023/05/17 05:46:56;;;;;;;;;;;;;;;9.58;85.67;96967.69;4985689;28;20180;-72
2023/05/17 05:49:22;;;;;;;;;;;;;;;9.77;83.94;96953.78;4985240;28;20127;-73
2023/05/17 05:51:47;;;;;;;;;;;;;;;9.96;83.55;96955.63;4985891;28;19954;-73
2023/05/17 05:54:13;;;;;;;;;;;;;;;10.08;81.88;96936.66;4985288;28;19963;-73
2023/05/17 05:56:39;;;;;;;;;;;;;;;10.20;81.00;96935.03;4985600;28;19962;-74
2023/05/17 05:59:05;;;;;;;;;;;;;;;10.33;79.75;96929.84;4985548;28;19966;-74
2023/05/17 06:01:31;;;;;;;;;;;;;;;10.36;80.57;96939.91;4985191;28;19968;-73
2023/05/17 06:03:57;;;;;;;;;;;;;;;10.30;81.08;96948.56;4985313;28;20053;-74
2023/05/17 06:06:22;;;;;;;;;;;;;;;10.23;80.76;96957.44;4985253;28;19952;-73
2023/05/17 06:08:48;;;;;;;;;;;;;;;10.25;81.20;96955.44;4985275;28;19958;-73
2023/05/17 06:11:14;;;;;;;;;;;;;;;10.31;80.63;96952.00;4985282;28;19951;-73
2023/05/17 06:13:40;;;;;;;;;;;;;;;10.38;80.58;96959.88;4985293;28;20061;-73
2023/05/17 06:16:06;;;;;;;;;;;;;;;10.41;81.51;96968.13;4985300;28;19965;-73
2023/05/17 06:18:32;;;;;;;;;;;;;;;10.52;80.45;96964.06;5052041;28;19970;-73
2023/05/17 06:20:58;;;;;;;;;;;;;;;10.66;77.34;96923.69;4985345;28;19964;-74
2023/05/17 06:23:24;;;;;;;;;;;;;;;10.78;80.53;96950.09;4985049;28;19994;-73
2023/05/17 06:25:51;;;;;;;;;;;;;;;10.88;78.84;96949.69;5051732;28;20126;-73
2023/05/17 06:28:17;;;;;;;;;;;;;;;10.72;77.05;96929.94;4985261;28;19954;-74
2023/05/17 06:30:43;;;;;;;;;;;;;;;10.68;77.69;96947.09;4985191;28;19994;-74
2023/05/17 06:33:08;;;;;;;;;;;;;;;10.76;79.04;96949.50;5052052;28;19953;-72
2023/05/17 06:35:35;;;;;;;;;;;;;;;10.93;78.42;96952.47;4984823;28;19961;-73
2023/05/17 06:38:01;;;;;;;;;;;;;;;11.16;76.87;96938.84;5052376;28;19954;-74
2023/05/17 06:40:26;;;;;;;;;;;;;;;11.39;78.69;96951.47;4984844;28;19994;-73
2023/05/17 06:42:52;;;;;;;;;;;;;;;11.56;77.24;96941.28;4984868;28;19965;-68
2023/05/17 06:45:18;;;;;;;;;;;;;;;11.77;76.04;96930.41;4984949;28;19963;-73
2023/05/17 06:47:44;;;;;;;;;;;;;;;11.88;74.96;96920.22;5051744;28;19956;-73
2023/05/17 06:50:10;;;;;;;;;;;;;;;11.86;72.46;96914.38;5051536;28;19942;-73
2023/05/17 06:52:36;;;;;;;;;;;;;;;11.89;74.41;96927.16;5051446;28;19990;-71
2023/05/17 06:55:02;;;;;;;;;;;;;;;11.93;74.64;96926.50;4984230;28;19957;-73
2023/05/17 06:57:28;;;;;;;;;;;;;;;11.91;71.44;96902.25;4984680;28;20154;-71
2023/05/17 06:59:54;;;;;;;;;;;;;;;12.05;73.63;96923.16;4984356;28;19962;-72
2023/05/17 07:02:19;;;;;;;;;;;;;;;12.11;72.52;96919.66;4984654;28;20188;-75
2023/05/17 07:04:45;;;;;;;;;;;;;;;12.14;73.74;96927.94;4984526;28;20251;-74
2023/05/17 07:07:11;;;;;;;;;;;;;;;12.04;67.30;96866.34;4984349;28;20148;-74
2023/05/17 07:09:37;;;;;;;;;;;;;;;12.09;72.14;96925.13;5051209;28;20131;-74
2023/05/17 07:12:03;;;;;;;;;;;;;;;12.30;72.73;96934.47;4984437;28;19955;-74
2023/05/17 07:14:29;;;;;;;;;;;;;;;12.48;72.99;96946.06;5051215;28;19966;-72
2023/05/17 07:16:55;;;;;;;;;;;;;;;12.65;73.24;96947.09;4984304;28;19965;-72
2023/05/17 07:19:21;;;;;;;;;;;;;;;12.75;74.75;96952.66;4983848;28;19948;-72
2023/05/17 07:21:47;;;;;;;;;;;;;;;12.73;70.75;96914.41;4983805;28;20157;-72
2023/05/17 07:24:12;;;;;;;;;;;;;;;12.71;75.70;96962.00;4984048;28;19963;-74
2023/05/17 07:26:38;;;;;;;;;;;;;;;12.62;73.07;96962.50;4984236;28;20021;-73
2023/05/17 07:29:04;;;;;;;;;;;;;;;12.70;71.33;96959.56;4984354;28;19989;-72
2023/05/17 07:31:30;;;;;;;;;;;;;;;12.83;70.41;96950.72;4983937;28;19958;-72
2023/05/17 07:33:56;;;;;;;;;;;;;;;12.89;74.04;96989.34;4983439;28;19957;-74
2023/05/17 07:36:22;;;;;;;;;;;;;;;12.80;70.31;96988.84;4983539;28;20256;-74
2023/05/17 07:38:48;;;;;;;;;;;;;;;12.52;70.30;97013.00;4983971;28;19979;-74
2023/05/17 07:41:15;;;;;;;;;;;;;;;12.30;67.09;97007.28;4983876;28;19972;-69
2023/05/17 07:43:41;;;;;;;;;;;;;;;12.13;71.35;97023.59;4983971;28;20250;-69
2023/05/17 07:46:07;;;;;;;;;;;;;;;11.85;70.29;97029.22;4983980;28;19972;-71
2023/05/17 07:48:33;;;;;;;;;;;;;;;11.47;72.39;97053.66;4983344;28;19954;-69
2023/05/17 07:50:59;;;;;;;;;;;;;;;11.24;73.26;97048.09;4983633;28;19964;-69
2023/05/17 07:53:25;;;;;;;;;;;;;;;11.26;75.03;97060.00;4983484;28;20015;-69
2023/05/17 07:55:51;;;;;;;;;;;;;;;11.43;74.10;97043.78;4983462;28;19967;-73
2023/05/17 07:58:17;;;;;;;;;;;;;;;11.45;74.67;97057.50;4983497;28;20137;-73
2023/05/17 08:00:42;;;;;;;;;;;;;;;11.40;72.84;97047.59;4983796;28;20120;-73
2023/05/17 08:03:08;;;;;;;;;;;;;;;11.46;75.61;97065.16;4983439;28;19958;-73
2023/05/17 08:05:34;;;;;;;;;;;;;;;11.34;74.72;97061.59;5050314;28;20256;-72
2023/05/17 08:08:00;;;;;;;;;;;;;;;11.13;75.58;97057.41;4983603;28;20240;-73
2023/05/17 08:10:26;;;;;;;;;;;;;;;11.16;73.75;97054.38;4983396;28;20034;-72
2023/05/17 08:12:52;;;;;;;;;;;;;;;11.41;73.18;97049.25;4983659;28;19963;-73
2023/05/17 08:15:18;;;;;;;;;;;;;;;11.49;72.03;97030.63;4983571;28;20015;-69
2023/05/17 08:17:44;;;;;;;;;;;;;;;11.31;72.63;97044.41;4983385;28;19962;-75
2023/05/17 08:20:10;;;;;;;;;;;;;;;11.39;72.83;97040.75;4983002;28;19951;-74
2023/05/17 08:22:36;;;;;;;;;;;;;;;11.57;72.43;97043.50;4983236;28;19968;-74
2023/05/17 08:25:02;;;;;;;;;;;;;;;11.83;71.48;97028.63;4983001;28;19975;-74
2023/05/17 08:27:31;;;;;;;;;;;;;;;12.00;70.53;97022.91;4983473;28;20243;-75
2023/05/17 08:29:57;;;;;;;;;;;;;;;12.11;72.72;97043.25;4982942;28;19938;-74
2023/05/17 08:32:23;;;;;;;;;;;;;;;12.26;70.50;97035.84;4982999;28;19960;-69
2023/05/17 08:34:48;;;;;;;;;;;;;;;12.50;71.26;97029.00;5049807;28;19995;-73
2023/05/17 08:37:14;;;;;;;;;;;;;;;12.56;70.02;97033.41;4983048;28;20131;-72
2023/05/17 08:39:40;;;;;;;;;;;;;;;12.54;65.54;97003.06;4983005;28;19968;-73
2023/05/17 08:42:07;;;;;;;;;;;;;;;12.67;66.54;97004.75;4983039;28;19971;-73
2023/05/17 08:44:33;;;;;;;;;;;;;;;12.34;66.40;97019.00;4982634;28;19956;-73
2023/05/17 08:47:00;;;;;;;;;;;;;;;12.03;67.95;97030.34;4982975;28;20023;-73
2023/05/17 08:49:27;;;;;;;;;;;;;;;12.05;69.54;97041.47;4983045;28;19949;-73
2023/05/17 08:51:54;;;;;;;;;;;;;;;11.95;69.91;97040.09;4982977;28;19964;-73
2023/05/17 08:54:21;;;;;;;;;;;;;;;11.92;67.98;97032.63;5049967;28;19981;-74
2023/05/17 08:56:50;;;;;;;;;;;;;;;11.93;67.92;97036.09;5050042;28;19967;-73
2023/05/17 08:59:18;;;;;;;;;;;;;;;11.82;68.41;97045.41;4982660;28;20141;-73
2023/05/17 09:01:46;;;;;;;;;;;;;;;11.68;69.17;97049.13;4982512;28;19966;-72
2023/05/17 09:04:12;;;;;;;;;;;;;;;11.70;68.17;97053.16;4982675;28;20257;-73
2023/05/17 09:06:38;;;;;;;;;;;;;;;12.01;67.33;97037.63;5049387;28;19953;-73
2023/05/17 09:09:06;;;;;;;;;;;;;;;12.35;66.71;97026.69;5049593;28;20212;-69
2023/05/17 09:11:32;;;;;;;;;;;;;;;12.54;68.64;97040.69;4982880;28;19964;-73
2023/05/17 09:13:58;;;;;;;;;;;;;;;12.40;64.00;97015.50;4982263;28;20050;-73
2023/05/17 09:16:27;;;;;;;;;;;;;;;12.51;65.26;97025.31;5033087;28;19958;-73
2023/05/17 09:18:54;;;;;;;;;;;;;;;12.76;63.24;97019.25;4982500;28;19954;-72
2023/05/17 09:21:20;;;;;;;;;;;;;;;13.14;67.18;97034.03;4982252;28;19964;-73
2023/05/17 09:23:46;;;;;;;;;;;;;;;13.36;60.76;97008.91;4982377;28;19961;-73
2023/05/17 09:26:12;;;;;;;;;;;;;;;13.36;64.96;97032.59;4982333;28;19992;-73
2023/05/17 09:28:39;;;;;;;;;;;;;;;13.40;63.93;97022.44;4982747;28;19956;-73
2023/05/17 09:31:08;;;;;;;;;;;;;;;13.35;64.72;97046.78;4982403;28;19967;-69
2023/05/17 09:33:41;;;;;;;;;;;;;;;13.16;63.20;97027.53;4982378;28;19962;-69
2023/05/17 09:36:14;;;;;;;;;;;;;;;12.87;63.43;97030.88;4982581;28;19965;-68
2023/05/17 09:38:40;;;;;;;;;;;;;;;12.73;64.36;97046.00;4982458;28;19968;-69
2023/05/17 09:41:05;;;;;;;;;;;;;;;12.71;64.40;97045.41;5049296;28;19942;-68
2023/05/17 09:43:31;;;;;;;;;;;;;;;12.72;66.25;97057.53;5049589;28;19970;-68
2023/05/17 09:45:57;;;;;;;;;;;;;;;12.65;64.27;97044.44;4982001;28;19963;-73
2023/05/17 09:48:26;;;;;;;;;;;;;;;12.50;64.56;97041.34;5047742;28;20347;-72
2023/05/17 09:50:53;;;;;;;;;;;;;;;12.28;64.82;97048.78;5048605;28;19961;-73
2023/05/17 09:53:25;;;;;;;;;;;;;;;12.19;64.04;97043.78;4982278;28;19952;-72
2023/05/17 09:55:56;;;;;;;;;;;;;;;12.11;64.48;97038.78;4982077;28;20019;-72
2023/05/17 09:58:22;;;;;;;;;;;;;;;12.10;66.28;97049.53;5050654;28;19957;-72
2023/05/17 10:00:57;;;;;;;;;;;;;;;12.35;66.25;97055.63;4985709;28;19962;-73
2023/05/17 10:03:25;;;;;;;;;;;;;;;12.57;64.09;97034.97;4985541;28;19952;-74
2023/05/17 10:05:52;;;;;;;;;;;;;;;12.64;64.87;97036.75;4985034;28;20230;-73
2023/05/17 10:08:22;;;;;;;;;;;;;;;12.83;67.50;97048.13;4985076;28;19964;-68
2023/05/17 10:10:49;;;;;;;;;;;;;;;13.02;61.76;97035.78;4985767;28;19974;-67
2023/05/17 10:13:18;;;;;;;;;;;;;;;12.96;62.19;97035.66;4985458;28;19955;-68
2023/05/17 10:15:44;;;;;;;;;;;;;;;13.19;63.45;97045.53;4985373;28;20225;-68
2023/05/17 10:18:10;;;;;;;;;;;;;;;13.41;58.23;97021.41;4985025;28;19967;-68
2023/05/17 10:20:36;;;;;;;;;;;;;;;13.42;64.60;97054.63;4985053;28;19963;-69
2023/05/17 10:23:04;;;;;;;;;;;;;;;13.37;62.35;97049.22;4985135;28;20243;-67
2023/05/17 10:25:30;;;;;;;;;;;;;;;13.44;62.76;97055.22;4985209;28;19960;-73
2023/05/17 10:27:57;;;;;;;;;;;;;;;13.44;63.33;97055.22;4985117;28;20138;-73
2023/05/17 10:30:24;;;;;;;;;;;;;;;13.36;63.25;97058.16;4985179;28;19972;-74
2023/05/17 10:32:51;;;;;;;;;;;;;;;13.31;60.46;97043.00;4985074;28;19954;-73
2023/05/17 10:35:17;;;;;;;;;;;;;;;13.19;59.41;97036.84;4984856;28;19972;-73
2023/05/17 10:37:43;;;;;;;;;;;;;;;13.05;60.16;97043.25;4984665;28;19953;-74
2023/05/17 10:40:12;;;;;;;;;;;;;;;12.90;60.54;97047.03;4984866;28;19961;-74
2023/05/17 10:42:42;;;;;;;;;;;;;;;12.84;57.96;97036.59;4984580;28;20112;-69
2023/05/17 10:45:10;;;;;;;;;;;;;;;13.09;62.77;97049.69;4984820;28;19959;-72
2023/05/17 10:47:40;;;;;;;;;;;;;;;13.43;59.46;97029.09;4984613;28;20129;-72
2023/05/17 10:50:10;;;;;;;;;;;;;;;13.55;58.96;97019.41;5051635;28;19959;-72
2023/05/17 10:52:37;;;;;;;;;;;;;;;13.61;58.02;97023.78;4984731;28;19955;-72
2023/05/17 10:55:06;;;;;;;;;;;;;;;13.70;57.83;97032.19;4984757;28;19954;-72
2023/05/17 10:57:36;;;;;;;;;;;;;;;13.90;57.34;97038.00;4984684;28;19957;-72
2023/05/17 11:00:05;;;;;;;;;;;;;;;14.17;60.24;97054.25;4984671;28;20267;-73
2023/05/17 11:02:32;;;;;;;;;;;;;;;14.50;55.89;97039.72;4984621;28;19970;-69
2023/05/17 11:04:59;;;;;;;;;;;;;;;14.55;54.92;97034.63;4984662;28;20145;-68
2023/05/17 11:07:31;;;;;;;;;;;;;;;14.56;55.31;97043.34;4984801;28;19954;-68
2023/05/17 11:10:02;;;;;;;;;;;;;;;14.57;55.52;97039.66;4983140;28;19960;-68
2023/05/17 11:12:35;;;;;;;;;;;;;;;14.72;57.66;97041.84;4984363;28;19960;-68
2023/05/17 11:15:11;;;;;;;;;;;;;;;14.93;58.56;97046.56;4984403;28;19964;-68
2023/05/17 11:17:43;;;;;;;;;;;;;;;14.76;58.19;97040.34;4984401;28;20267;-68
2023/05/17 11:20:28;;;;;;;;;;;;;;;14.43;57.07;97046.16;4983976;28;19946;-72
2023/05/17 11:22:54;;;;;;;;;;;;;;;14.01;56.03;97028.53;4984500;28;19973;-73
2023/05/17 11:25:20;;;;;;;;;;;;;;;13.59;57.79;97039.81;4984029;28;19958;-74
2023/05/17 11:27:48;;;;;;;;;;;;;;;13.40;60.38;97049.59;4983985;28;20227;-73
2023/05/17 11:30:27;;;;;;;;;;;;;;;13.50;62.28;97062.25;4984516;28;19961;-74
2023/05/17 11:33:00;;;;;;;;;;;;;;;13.65;61.12;97043.41;4984090;28;20246;-73
2023/05/17 11:35:27;;;;;;;;;;;;;;;13.76;61.18;97050.56;4984071;28;19956;-74
2023/05/17 11:37:53;;;;;;;;;;;;;;;13.87;59.07;97046.34;4984163;28;19955;-73
2023/05/17 11:40:26;;;;;;;;;;;;;;;14.00;56.42;97032.19;4984145;28;19952;-69
2023/05/17 11:43:19;;;;;;;;;;;;;;;14.09;58.39;97041.41;5050501;28;19964;-68
2023/05/17 11:45:56;;;;;;;;;;;;;;;14.11;56.91;97033.22;4985484;28;19969;-68
2023/05/17 11:48:22;;;;;;;;;;;;;;;13.97;57.29;97038.72;4983899;28;19955;-68
2023/05/17 11:50:49;;;;;;;;;;;;;;;13.71;60.10;97039.06;4983840;28;19962;-67
2023/05/17 11:53:15;;;;;;;;;;;;;;;13.51;61.01;97050.66;4983986;28;19963;-68
2023/05/17 11:55:51;;;;;;;;;;;;;;;13.25;61.49;97053.56;4983840;28;19955;-73
2023/05/17 11:58:19;;;;;;;;;;;;;;;13.06;61.97;97063.28;4983822;28;19975;-73
2023/05/17 12:00:45;;;;;;;;;;;;;;;12.94;62.50;97064.03;4983516;28;19947;-72
2023/05/17 12:03:29;;;;;;;;;;;;;;;12.86;62.18;97061.66;5050549;28;19977;-72
2023/05/17 12:06:06;;;;;;;;;;;;;;;12.88;62.78;97064.88;4983388;28;19951;-71
2023/05/17 12:08:33;;;;;;;;;;;;;;;13.03;63.27;97054.00;4983439;28;19968;-72
2023/05/17 12:10:59;;;;;;;;;;;;;;;13.18;62.88;97064.19;4983397;28;19957;-72
2023/05/17 12:13:29;;;;;;;;;;;;;;;13.27;61.97;97060.25;4983491;28;19958;-74
2023/05/17 12:15:56;;;;;;;;;;;;;;;13.35;62.07;97059.97;5050523;28;19955;-68
2023/05/17 12:18:22;;;;;;;;;;;;;;;13.41;61.25;97053.00;4983460;28;20255;-68
2023/05/17 12:20:52;;;;;;;;;;;;;;;13.40;59.63;97040.88;4982522;28;19956;-70
2023/05/17 12:23:24;;;;;;;;;;;;;;;13.38;60.80;97056.09;4982925;28;19977;-68
2023/05/17 12:25:50;;;;;;;;;;;;;;;13.40;59.99;97043.50;4983046;28;20112;-68
2023/05/17 12:28:20;;;;;;;;;;;;;;;13.45;60.78;97053.38;4983590;28;19967;-68
2023/05/17 12:30:51;;;;;;;;;;;;;;;13.38;59.73;97054.28;5050173;28;19959;-68
2023/05/17 12:33:17;;;;;;;;;;;;;;;13.31;61.21;97058.81;4983121;28;19957;-68
2023/05/17 12:35:43;;;;;;;;;;;;;;;13.24;61.10;97054.59;5049853;28;19964;-72
2023/05/17 12:38:10;;;;;;;;;;;;;;;13.16;60.82;97050.44;5049783;28;20155;-72
2023/05/17 12:40:38;;;;;;;;;;;;;;;13.12;61.99;97057.97;4983126;28;19966;-72
2023/05/17 12:43:04;;;;;;;;;;;;;;;13.10;60.71;97049.50;4983144;28;19975;-72
2023/05/17 12:45:30;;;;;;;;;;;;;;;13.10;60.82;97048.66;4983127;28;19962;-73
2023/05/17 12:47:58;;;;;;;;;;;;;;;13.10;61.26;97046.84;4982580;28;20127;-72
2023/05/17 12:50:27;;;;;;;;;;;;;;;13.26;60.93;97044.66;4983394;28;19963;-73